sensor_id;sensor_type;location;lat;lon;timestamp;P1;durP1;ratioP1;P2;durP2;ratioP2
61200;SDS011;47065;52.898;6.992;2024-02-23T00:01:36;2.20;;;0.20;;
61200;SDS011;47065;52.898;6.992;2024-02-23T00:04:02;3.00;;;0.60;;
61200;SDS011;47065;52.898;6.992;2024-02-23T00:06:28;2.42;;;0.50;;
61200;SDS011;47065;52.898;6.992;2024-02-23T00:08:54;1.35;;;0.30;;
61200;SDS011;47065;52.898;6.992;2024-02-23T00:11:23;1.50;;;0.40;;
61200;SDS011;47065;52.898;6.992;2024-02-23T00:13:49;4.82;;;0.65;;
61200;SDS011;47065;52.898;6.992;2024-02-23T00:16:14;1.55;;;0.40;;
61200;SDS011;47065;52.898;6.992;2024-02-23T00:18:40;1.73;;;0.77;;
61200;SDS011;47065;52.898;6.992;2024-02-23T00:21:06;1.60;;;0.45;;
61200;SDS011;47065;52.898;6.992;2024-02-23T00:23:32;1.13;;;0.35;;
61200;SDS011;47065;52.898;6.992;2024-02-23T00:25:57;3.60;;;0.50;;
61200;SDS011;47065;52.898;6.992;2024-02-23T00:28:23;2.92;;;0.60;;
61200;SDS011;47065;52.898;6.992;2024-02-23T00:30:49;2.92;;;0.77;;
61200;SDS011;47065;52.898;6.992;2024-02-23T00:33:14;2.28;;;0.50;;
61200;SDS011;47065;52.898;6.992;2024-02-23T00:35:40;2.28;;;0.85;;
61200;SDS011;47065;52.898;6.992;2024-02-23T00:38:06;2.42;;;1.02;;
61200;SDS011;47065;52.898;6.992;2024-02-23T00:40:32;0.95;;;0.40;;
61200;SDS011;47065;52.898;6.992;2024-02-23T00:42:58;3.15;;;0.45;;
61200;SDS011;47065;52.898;6.992;2024-02-23T00:45:25;0.55;;;0.30;;
61200;SDS011;47065;52.898;6.992;2024-02-23T00:47:51;0.40;;;0.30;;
61200;SDS011;47065;52.898;6.992;2024-02-23T00:50:16;2.15;;;0.35;;
61200;SDS011;47065;52.898;6.992;2024-02-23T00:52:42;4.45;;;0.88;;
61200;SDS011;47065;52.898;6.992;2024-02-23T00:55:08;0.20;;;0.20;;
61200;SDS011;47065;52.898;6.992;2024-02-23T00:57:37;1.42;;;0.32;;
61200;SDS011;47065;52.898;6.992;2024-02-23T01:00:03;1.20;;;0.90;;
61200;SDS011;47065;52.898;6.992;2024-02-23T01:02:30;1.73;;;0.45;;
61200;SDS011;47065;52.898;6.992;2024-02-23T01:04:58;0.17;;;0.10;;
61200;SDS011;47065;52.898;6.992;2024-02-23T01:07:24;0.22;;;0.20;;
61200;SDS011;47065;52.898;6.992;2024-02-23T01:09:50;0.50;;;0.20;;
61200;SDS011;47065;52.898;6.992;2024-02-23T01:12:16;1.17;;;0.20;;
61200;SDS011;47065;52.898;6.992;2024-02-23T01:14:41;0.57;;;0.43;;
61200;SDS011;47065;52.898;6.992;2024-02-23T01:17:10;0.10;;;0.10;;
61200;SDS011;47065;52.898;6.992;2024-02-23T01:19:35;2.05;;;0.40;;
61200;SDS011;47065;52.898;6.992;2024-02-23T01:22:03;0.30;;;0.30;;
61200;SDS011;47065;52.898;6.992;2024-02-23T01:24:28;0.20;;;0.20;;
61200;SDS011;47065;52.898;6.992;2024-02-23T01:26:54;1.10;;;0.40;;
61200;SDS011;47065;52.898;6.992;2024-02-23T01:29:23;0.32;;;0.32;;
61200;SDS011;47065;52.898;6.992;2024-02-23T01:31:50;0.65;;;0.40;;
61200;SDS011;47065;52.898;6.992;2024-02-23T01:34:16;0.77;;;0.47;;
61200;SDS011;47065;52.898;6.992;2024-02-23T01:36:42;0.20;;;0.20;;
61200;SDS011;47065;52.898;6.992;2024-02-23T01:39:09;0.50;;;0.25;;
61200;SDS011;47065;52.898;6.992;2024-02-23T01:41:36;0.20;;;0.20;;
61200;SDS011;47065;52.898;6.992;2024-02-23T01:44:02;0.20;;;0.20;;
61200;SDS011;47065;52.898;6.992;2024-02-23T01:46:28;0.30;;;0.30;;
61200;SDS011;47065;52.898;6.992;2024-02-23T01:48:54;4.60;;;1.83;;
61200;SDS011;47065;52.898;6.992;2024-02-23T01:51:20;1.10;;;0.82;;
61200;SDS011;47065;52.898;6.992;2024-02-23T01:53:46;1.10;;;0.80;;
61200;SDS011;47065;52.898;6.992;2024-02-23T01:56:14;4.13;;;1.48;;
61200;SDS011;47065;52.898;6.992;2024-02-23T01:58:44;4.85;;;2.13;;
61200;SDS011;47065;52.898;6.992;2024-02-23T02:01:11;6.45;;;1.42;;
61200;SDS011;47065;52.898;6.992;2024-02-23T02:03:40;2.58;;;1.58;;
61200;SDS011;47065;52.898;6.992;2024-02-23T02:06:06;7.07;;;2.05;;
61200;SDS011;47065;52.898;6.992;2024-02-23T02:08:35;7.15;;;1.65;;
61200;SDS011;47065;52.898;6.992;2024-02-23T02:11:02;5.03;;;1.42;;
61200;SDS011;47065;52.898;6.992;2024-02-23T02:13:28;4.75;;;1.08;;
61200;SDS011;47065;52.898;6.992;2024-02-23T02:15:55;6.00;;;1.85;;
61200;SDS011;47065;52.898;6.992;2024-02-23T02:18:21;5.57;;;1.35;;
61200;SDS011;47065;52.898;6.992;2024-02-23T02:20:51;9.50;;;2.00;;
61200;SDS011;47065;52.898;6.992;2024-02-23T02:23:19;14.68;;;2.00;;
61200;SDS011;47065;52.898;6.992;2024-02-23T02:25:44;6.40;;;1.20;;
61200;SDS011;47065;52.898;6.992;2024-02-23T02:28:10;12.32;;;1.92;;
61200;SDS011;47065;52.898;6.992;2024-02-23T02:30:37;9.98;;;2.40;;
61200;SDS011;47065;52.898;6.992;2024-02-23T02:33:03;11.90;;;3.35;;
61200;SDS011;47065;52.898;6.992;2024-02-23T02:35:29;11.45;;;2.03;;
61200;SDS011;47065;52.898;6.992;2024-02-23T02:37:54;9.65;;;2.30;;
61200;SDS011;47065;52.898;6.992;2024-02-23T02:40:23;10.90;;;2.97;;
61200;SDS011;47065;52.898;6.992;2024-02-23T02:42:49;9.52;;;4.30;;
61200;SDS011;47065;52.898;6.992;2024-02-23T02:45:15;12.18;;;4.03;;
61200;SDS011;47065;52.898;6.992;2024-02-23T02:47:41;12.73;;;2.55;;
61200;SDS011;47065;52.898;6.992;2024-02-23T02:50:08;10.77;;;3.30;;
61200;SDS011;47065;52.898;6.992;2024-02-23T02:52:34;9.48;;;3.67;;
61200;SDS011;47065;52.898;6.992;2024-02-23T02:55:00;13.38;;;3.83;;
61200;SDS011;47065;52.898;6.992;2024-02-23T02:57:25;10.18;;;2.75;;
61200;SDS011;47065;52.898;6.992;2024-02-23T02:59:51;15.85;;;3.60;;
61200;SDS011;47065;52.898;6.992;2024-02-23T03:02:17;6.75;;;2.90;;
61200;SDS011;47065;52.898;6.992;2024-02-23T03:04:51;6.35;;;2.50;;
61200;SDS011;47065;52.898;6.992;2024-02-23T03:07:19;10.88;;;3.17;;
61200;SDS011;47065;52.898;6.992;2024-02-23T03:09:44;12.90;;;3.30;;
61200;SDS011;47065;52.898;6.992;2024-02-23T03:12:10;9.75;;;3.47;;
61200;SDS011;47065;52.898;6.992;2024-02-23T03:14:36;10.13;;;3.55;;
61200;SDS011;47065;52.898;6.992;2024-02-23T03:17:06;8.60;;;3.03;;
61200;SDS011;47065;52.898;6.992;2024-02-23T03:19:32;4.78;;;2.20;;
61200;SDS011;47065;52.898;6.992;2024-02-23T03:21:58;5.85;;;2.60;;
61200;SDS011;47065;52.898;6.992;2024-02-23T03:24:24;7.60;;;1.70;;
61200;SDS011;47065;52.898;6.992;2024-02-23T03:26:50;5.60;;;2.58;;
61200;SDS011;47065;52.898;6.992;2024-02-23T03:29:15;7.38;;;2.90;;
61200;SDS011;47065;52.898;6.992;2024-02-23T03:31:41;4.90;;;1.30;;
61200;SDS011;47065;52.898;6.992;2024-02-23T03:34:07;5.65;;;1.63;;
61200;SDS011;47065;52.898;6.992;2024-02-23T03:36:33;3.88;;;1.48;;
61200;SDS011;47065;52.898;6.992;2024-02-23T03:38:59;6.05;;;1.67;;
61200;SDS011;47065;52.898;6.992;2024-02-23T03:41:26;4.43;;;1.25;;
61200;SDS011;47065;52.898;6.992;2024-02-23T03:43:51;5.30;;;1.55;;
61200;SDS011;47065;52.898;6.992;2024-02-23T03:46:20;7.97;;;1.50;;
61200;SDS011;47065;52.898;6.992;2024-02-23T03:48:46;6.40;;;1.60;;
61200;SDS011;47065;52.898;6.992;2024-02-23T03:51:12;2.92;;;1.52;;
61200;SDS011;47065;52.898;6.992;2024-02-23T03:53:37;5.35;;;1.42;;
61200;SDS011;47065;52.898;6.992;2024-02-23T03:56:03;3.05;;;1.42;;
61200;SDS011;47065;52.898;6.992;2024-02-23T03:58:29;4.63;;;2.13;;
61200;SDS011;47065;52.898;6.992;2024-02-23T04:00:55;7.85;;;2.05;;
61200;SDS011;47065;52.898;6.992;2024-02-23T04:03:21;6.78;;;1.63;;
61200;SDS011;47065;52.898;6.992;2024-02-23T04:05:46;5.97;;;1.50;;
61200;SDS011;47065;52.898;6.992;2024-02-23T04:08:12;6.70;;;1.83;;
61200;SDS011;47065;52.898;6.992;2024-02-23T04:10:38;5.60;;;1.20;;
61200;SDS011;47065;52.898;6.992;2024-02-23T04:13:08;2.13;;;1.08;;
61200;SDS011;47065;52.898;6.992;2024-02-23T04:15:35;9.00;;;1.60;;
61200;SDS011;47065;52.898;6.992;2024-02-23T04:18:04;2.83;;;0.95;;
61200;SDS011;47065;52.898;6.992;2024-02-23T04:20:32;4.72;;;1.90;;
61200;SDS011;47065;52.898;6.992;2024-02-23T04:22:58;8.00;;;1.10;;
61200;SDS011;47065;52.898;6.992;2024-02-23T04:25:24;3.47;;;1.10;;
61200;SDS011;47065;52.898;6.992;2024-02-23T04:27:50;7.35;;;1.55;;
61200;SDS011;47065;52.898;6.992;2024-02-23T04:30:15;6.57;;;1.60;;
61200;SDS011;47065;52.898;6.992;2024-02-23T04:32:41;8.70;;;1.40;;
61200;SDS011;47065;52.898;6.992;2024-02-23T04:35:07;5.13;;;1.40;;
61200;SDS011;47065;52.898;6.992;2024-02-23T04:37:33;5.82;;;2.30;;
61200;SDS011;47065;52.898;6.992;2024-02-23T04:39:59;4.97;;;1.20;;
61200;SDS011;47065;52.898;6.992;2024-02-23T04:42:25;4.22;;;2.08;;
61200;SDS011;47065;52.898;6.992;2024-02-23T04:44:50;7.40;;;1.77;;
61200;SDS011;47065;52.898;6.992;2024-02-23T04:47:19;2.47;;;1.20;;
61200;SDS011;47065;52.898;6.992;2024-02-23T04:49:45;3.75;;;1.33;;
61200;SDS011;47065;52.898;6.992;2024-02-23T04:52:11;13.05;;;1.70;;
61200;SDS011;47065;52.898;6.992;2024-02-23T04:54:36;9.88;;;2.75;;
61200;SDS011;47065;52.898;6.992;2024-02-23T04:57:02;7.00;;;1.90;;
61200;SDS011;47065;52.898;6.992;2024-02-23T04:59:28;9.43;;;2.22;;
61200;SDS011;47065;52.898;6.992;2024-02-23T05:01:55;7.47;;;1.98;;
61200;SDS011;47065;52.898;6.992;2024-02-23T05:04:20;6.57;;;2.17;;
61200;SDS011;47065;52.898;6.992;2024-02-23T05:06:46;5.80;;;2.17;;
61200;SDS011;47065;52.898;6.992;2024-02-23T05:09:12;13.68;;;3.08;;
61200;SDS011;47065;52.898;6.992;2024-02-23T05:11:38;7.07;;;2.95;;
61200;SDS011;47065;52.898;6.992;2024-02-23T05:14:04;7.57;;;4.25;;
61200;SDS011;47065;52.898;6.992;2024-02-23T05:16:31;8.63;;;4.90;;
61200;SDS011;47065;52.898;6.992;2024-02-23T05:18:56;13.65;;;5.20;;
61200;SDS011;47065;52.898;6.992;2024-02-23T05:21:22;10.15;;;4.72;;
61200;SDS011;47065;52.898;6.992;2024-02-23T05:23:48;13.32;;;5.05;;
61200;SDS011;47065;52.898;6.992;2024-02-23T05:26:14;11.63;;;4.20;;
61200;SDS011;47065;52.898;6.992;2024-02-23T05:28:40;16.45;;;7.22;;
61200;SDS011;47065;52.898;6.992;2024-02-23T05:31:06;8.65;;;4.53;;
61200;SDS011;47065;52.898;6.992;2024-02-23T05:33:34;11.93;;;4.47;;
61200;SDS011;47065;52.898;6.992;2024-02-23T05:35:59;10.77;;;4.07;;
61200;SDS011;47065;52.898;6.992;2024-02-23T05:38:25;10.32;;;4.22;;
61200;SDS011;47065;52.898;6.992;2024-02-23T05:40:53;9.23;;;4.55;;
61200;SDS011;47065;52.898;6.992;2024-02-23T05:43:19;12.23;;;4.90;;
61200;SDS011;47065;52.898;6.992;2024-02-23T05:45:45;17.33;;;6.05;;
61200;SDS011;47065;52.898;6.992;2024-02-23T05:48:10;8.45;;;4.40;;
61200;SDS011;47065;52.898;6.992;2024-02-23T05:50:39;11.20;;;4.78;;
61200;SDS011;47065;52.898;6.992;2024-02-23T05:53:05;13.10;;;4.45;;
61200;SDS011;47065;52.898;6.992;2024-02-23T05:55:30;13.10;;;3.80;;
61200;SDS011;47065;52.898;6.992;2024-02-23T05:57:56;13.48;;;5.45;;
61200;SDS011;47065;52.898;6.992;2024-02-23T06:00:22;13.10;;;4.60;;
61200;SDS011;47065;52.898;6.992;2024-02-23T06:02:47;10.70;;;4.22;;
61200;SDS011;47065;52.898;6.992;2024-02-23T06:05:13;7.03;;;4.10;;
61200;SDS011;47065;52.898;6.992;2024-02-23T06:07:48;9.30;;;4.22;;
61200;SDS011;47065;52.898;6.992;2024-02-23T06:10:13;8.95;;;4.22;;
61200;SDS011;47065;52.898;6.992;2024-02-23T06:12:39;10.95;;;4.10;;
61200;SDS011;47065;52.898;6.992;2024-02-23T06:15:05;11.68;;;5.35;;
61200;SDS011;47065;52.898;6.992;2024-02-23T06:17:31;8.27;;;4.15;;
61200;SDS011;47065;52.898;6.992;2024-02-23T06:19:57;16.80;;;5.05;;
61200;SDS011;47065;52.898;6.992;2024-02-23T06:22:25;7.05;;;3.90;;
61200;SDS011;47065;52.898;6.992;2024-02-23T06:24:51;10.65;;;4.60;;
61200;SDS011;47065;52.898;6.992;2024-02-23T06:27:17;10.63;;;3.67;;
61200;SDS011;47065;52.898;6.992;2024-02-23T06:29:42;12.55;;;4.97;;
61200;SDS011;47065;52.898;6.992;2024-02-23T06:32:11;15.18;;;4.45;;
61200;SDS011;47065;52.898;6.992;2024-02-23T06:34:36;6.97;;;3.80;;
61200;SDS011;47065;52.898;6.992;2024-02-23T06:37:02;10.18;;;4.85;;
61200;SDS011;47065;52.898;6.992;2024-02-23T06:39:28;18.00;;;5.95;;
61200;SDS011;47065;52.898;6.992;2024-02-23T06:41:54;12.23;;;4.80;;
61200;SDS011;47065;52.898;6.992;2024-02-23T06:44:19;9.20;;;4.80;;
61200;SDS011;47065;52.898;6.992;2024-02-23T06:46:45;10.20;;;5.03;;
61200;SDS011;47065;52.898;6.992;2024-02-23T06:49:11;13.35;;;4.25;;
61200;SDS011;47065;52.898;6.992;2024-02-23T06:51:37;7.70;;;4.18;;
61200;SDS011;47065;52.898;6.992;2024-02-23T06:54:04;10.70;;;4.50;;
61200;SDS011;47065;52.898;6.992;2024-02-23T06:56:29;14.73;;;4.57;;
61200;SDS011;47065;52.898;6.992;2024-02-23T06:58:55;15.10;;;5.63;;
61200;SDS011;47065;52.898;6.992;2024-02-23T07:01:21;11.95;;;5.40;;
61200;SDS011;47065;52.898;6.992;2024-02-23T07:03:47;12.90;;;4.45;;
61200;SDS011;47065;52.898;6.992;2024-02-23T07:06:16;11.73;;;4.60;;
61200;SDS011;47065;52.898;6.992;2024-02-23T07:08:43;21.13;;;5.10;;
61200;SDS011;47065;52.898;6.992;2024-02-23T07:11:10;8.48;;;4.05;;
61200;SDS011;47065;52.898;6.992;2024-02-23T07:13:36;8.02;;;4.32;;
61200;SDS011;47065;52.898;6.992;2024-02-23T07:16:01;17.83;;;5.43;;
61200;SDS011;47065;52.898;6.992;2024-02-23T07:18:28;9.80;;;3.50;;
61200;SDS011;47065;52.898;6.992;2024-02-23T07:20:54;8.70;;;3.80;;
61200;SDS011;47065;52.898;6.992;2024-02-23T07:23:29;12.25;;;3.45;;
61200;SDS011;47065;52.898;6.992;2024-02-23T07:25:57;8.00;;;4.97;;
61200;SDS011;47065;52.898;6.992;2024-02-23T07:28:23;16.05;;;4.40;;
61200;SDS011;47065;52.898;6.992;2024-02-23T07:30:48;8.85;;;3.38;;
61200;SDS011;47065;52.898;6.992;2024-02-23T07:33:14;10.23;;;2.55;;
61200;SDS011;47065;52.898;6.992;2024-02-23T07:36:02;5.22;;;2.03;;
61200;SDS011;47065;52.898;6.992;2024-02-23T07:39:00;6.22;;;3.53;;
61200;SDS011;47065;52.898;6.992;2024-02-23T07:41:35;8.02;;;3.30;;
61200;SDS011;47065;52.898;6.992;2024-02-23T07:44:09;6.07;;;2.05;;
61200;SDS011;47065;52.898;6.992;2024-02-23T07:46:35;9.20;;;2.60;;
61200;SDS011;47065;52.898;6.992;2024-02-23T07:49:02;14.43;;;2.78;;
61200;SDS011;47065;52.898;6.992;2024-02-23T07:51:29;10.35;;;3.05;;
61200;SDS011;47065;52.898;6.992;2024-02-23T07:53:55;9.68;;;3.28;;
61200;SDS011;47065;52.898;6.992;2024-02-23T07:56:20;6.57;;;2.38;;
61200;SDS011;47065;52.898;6.992;2024-02-23T07:58:46;8.20;;;2.67;;
61200;SDS011;47065;52.898;6.992;2024-02-23T08:01:14;6.65;;;2.15;;
61200;SDS011;47065;52.898;6.992;2024-02-23T08:03:42;5.47;;;1.90;;
61200;SDS011;47065;52.898;6.992;2024-02-23T08:06:10;8.95;;;2.58;;
61200;SDS011;47065;52.898;6.992;2024-02-23T08:08:38;6.05;;;1.80;;
61200;SDS011;47065;52.898;6.992;2024-02-23T08:11:04;9.90;;;2.40;;
61200;SDS011;47065;52.898;6.992;2024-02-23T08:13:30;6.15;;;2.53;;
61200;SDS011;47065;52.898;6.992;2024-02-23T08:15:57;8.35;;;2.10;;
61200;SDS011;47065;52.898;6.992;2024-02-23T08:18:26;8.98;;;2.40;;
61200;SDS011;47065;52.898;6.992;2024-02-23T08:20:52;4.85;;;1.60;;
61200;SDS011;47065;52.898;6.992;2024-02-23T08:23:17;3.42;;;1.50;;
61200;SDS011;47065;52.898;6.992;2024-02-23T08:25:47;8.20;;;1.92;;
61200;SDS011;47065;52.898;6.992;2024-02-23T08:28:13;3.45;;;1.48;;
61200;SDS011;47065;52.898;6.992;2024-02-23T08:30:39;4.57;;;1.33;;
61200;SDS011;47065;52.898;6.992;2024-02-23T08:33:05;6.03;;;1.50;;
61200;SDS011;47065;52.898;6.992;2024-02-23T08:35:30;5.90;;;1.98;;
61200;SDS011;47065;52.898;6.992;2024-02-23T08:37:57;10.80;;;2.55;;
61200;SDS011;47065;52.898;6.992;2024-02-23T08:40:23;4.65;;;1.60;;
61200;SDS011;47065;52.898;6.992;2024-02-23T08:42:48;4.47;;;1.63;;
61200;SDS011;47065;52.898;6.992;2024-02-23T08:45:15;6.47;;;1.40;;
61200;SDS011;47065;52.898;6.992;2024-02-23T08:47:41;2.45;;;1.30;;
61200;SDS011;47065;52.898;6.992;2024-02-23T08:50:07;1.95;;;1.35;;
61200;SDS011;47065;52.898;6.992;2024-02-23T08:52:33;4.07;;;1.30;;
61200;SDS011;47065;52.898;6.992;2024-02-23T08:54:58;9.32;;;1.70;;
61200;SDS011;47065;52.898;6.992;2024-02-23T08:57:25;3.42;;;1.35;;
61200;SDS011;47065;52.898;6.992;2024-02-23T08:59:52;4.15;;;1.25;;
61200;SDS011;47065;52.898;6.992;2024-02-23T09:02:18;12.02;;;1.83;;
61200;SDS011;47065;52.898;6.992;2024-02-23T09:04:44;4.25;;;0.90;;
61200;SDS011;47065;52.898;6.992;2024-02-23T09:07:11;6.15;;;1.15;;
61200;SDS011;47065;52.898;6.992;2024-02-23T09:09:37;6.82;;;1.73;;
61200;SDS011;47065;52.898;6.992;2024-02-23T09:12:02;6.60;;;2.65;;
61200;SDS011;47065;52.898;6.992;2024-02-23T09:14:28;7.65;;;1.13;;
61200;SDS011;47065;52.898;6.992;2024-02-23T09:16:54;4.93;;;1.77;;
61200;SDS011;47065;52.898;6.992;2024-02-23T09:19:20;12.80;;;2.08;;
61200;SDS011;47065;52.898;6.992;2024-02-23T09:21:46;4.50;;;1.63;;
61200;SDS011;47065;52.898;6.992;2024-02-23T09:24:12;6.80;;;1.90;;
61200;SDS011;47065;52.898;6.992;2024-02-23T09:26:38;4.90;;;1.17;;
61200;SDS011;47065;52.898;6.992;2024-02-23T09:29:04;8.43;;;1.58;;
61200;SDS011;47065;52.898;6.992;2024-02-23T09:31:30;5.20;;;1.52;;
61200;SDS011;47065;52.898;6.992;2024-02-23T09:33:57;6.60;;;1.20;;
61200;SDS011;47065;52.898;6.992;2024-02-23T09:36:23;4.15;;;1.27;;
61200;SDS011;47065;52.898;6.992;2024-02-23T09:38:49;12.68;;;1.83;;
61200;SDS011;47065;52.898;6.992;2024-02-23T09:41:19;8.35;;;1.50;;
61200;SDS011;47065;52.898;6.992;2024-02-23T09:43:46;5.10;;;1.23;;
61200;SDS011;47065;52.898;6.992;2024-02-23T09:46:14;2.92;;;1.23;;
61200;SDS011;47065;52.898;6.992;2024-02-23T09:48:42;5.90;;;1.70;;
61200;SDS011;47065;52.898;6.992;2024-02-23T09:51:09;20.60;;;2.00;;
61200;SDS011;47065;52.898;6.992;2024-02-23T09:53:37;5.88;;;1.42;;
61200;SDS011;47065;52.898;6.992;2024-02-23T09:56:03;4.13;;;1.98;;
61200;SDS011;47065;52.898;6.992;2024-02-23T09:58:33;6.30;;;2.05;;
61200;SDS011;47065;52.898;6.992;2024-02-23T10:01:01;5.47;;;2.33;;
61200;SDS011;47065;52.898;6.992;2024-02-23T10:03:28;5.18;;;1.58;;
61200;SDS011;47065;52.898;6.992;2024-02-23T10:05:58;6.90;;;1.40;;
61200;SDS011;47065;52.898;6.992;2024-02-23T10:08:28;4.32;;;1.45;;
61200;SDS011;47065;52.898;6.992;2024-02-23T10:10:54;3.90;;;1.50;;
61200;SDS011;47065;52.898;6.992;2024-02-23T10:13:21;3.97;;;1.02;;
61200;SDS011;47065;52.898;6.992;2024-02-23T10:15:52;6.53;;;1.60;;
61200;SDS011;47065;52.898;6.992;2024-02-23T10:18:18;6.25;;;1.25;;
61200;SDS011;47065;52.898;6.992;2024-02-23T10:20:44;2.95;;;1.20;;
61200;SDS011;47065;52.898;6.992;2024-02-23T10:23:11;3.88;;;1.20;;
61200;SDS011;47065;52.898;6.992;2024-02-23T10:25:37;1.05;;;0.65;;
61200;SDS011;47065;52.898;6.992;2024-02-23T10:28:05;8.52;;;2.28;;
61200;SDS011;47065;52.898;6.992;2024-02-23T10:30:32;5.97;;;1.52;;
61200;SDS011;47065;52.898;6.992;2024-02-23T10:32:58;1.65;;;0.80;;
61200;SDS011;47065;52.898;6.992;2024-02-23T10:35:25;7.53;;;1.00;;
61200;SDS011;47065;52.898;6.992;2024-02-23T10:37:52;5.93;;;1.83;;
61200;SDS011;47065;52.898;6.992;2024-02-23T10:40:20;4.07;;;1.50;;
61200;SDS011;47065;52.898;6.992;2024-02-23T10:42:49;4.65;;;1.13;;
61200;SDS011;47065;52.898;6.992;2024-02-23T10:45:17;9.45;;;0.90;;
61200;SDS011;47065;52.898;6.992;2024-02-23T10:47:44;5.43;;;1.23;;
61200;SDS011;47065;52.898;6.992;2024-02-23T10:50:10;5.97;;;0.93;;
61200;SDS011;47065;52.898;6.992;2024-02-23T10:52:40;2.92;;;1.02;;
61200;SDS011;47065;52.898;6.992;2024-02-23T10:55:09;8.57;;;1.30;;
61200;SDS011;47065;52.898;6.992;2024-02-23T10:57:35;5.63;;;1.17;;
61200;SDS011;47065;52.898;6.992;2024-02-23T11:00:02;7.18;;;0.90;;
61200;SDS011;47065;52.898;6.992;2024-02-23T11:02:36;1.92;;;0.90;;
61200;SDS011;47065;52.898;6.992;2024-02-23T11:05:06;6.15;;;1.90;;
61200;SDS011;47065;52.898;6.992;2024-02-23T11:07:37;6.85;;;1.88;;
61200;SDS011;47065;52.898;6.992;2024-02-23T11:10:04;2.58;;;0.70;;
61200;SDS011;47065;52.898;6.992;2024-02-23T11:12:30;4.30;;;0.90;;
61200;SDS011;47065;52.898;6.992;2024-02-23T11:14:57;5.03;;;1.77;;
61200;SDS011;47065;52.898;6.992;2024-02-23T11:17:26;4.72;;;1.20;;
61200;SDS011;47065;52.898;6.992;2024-02-23T11:19:54;3.78;;;1.45;;
61200;SDS011;47065;52.898;6.992;2024-02-23T11:22:26;4.13;;;1.13;;
61200;SDS011;47065;52.898;6.992;2024-02-23T11:25:00;6.35;;;1.55;;
61200;SDS011;47065;52.898;6.992;2024-02-23T11:27:44;8.20;;;1.58;;
61200;SDS011;47065;52.898;6.992;2024-02-23T11:30:23;3.10;;;1.33;;
61200;SDS011;47065;52.898;6.992;2024-02-23T11:32:51;8.23;;;1.58;;
61200;SDS011;47065;52.898;6.992;2024-02-23T11:35:25;5.97;;;1.20;;
61200;SDS011;47065;52.898;6.992;2024-02-23T11:37:52;3.22;;;0.82;;
61200;SDS011;47065;52.898;6.992;2024-02-23T11:42:54;5.60;;;2.17;;
61200;SDS011;47065;52.898;6.992;2024-02-23T11:45:20;4.05;;;1.27;;
61200;SDS011;47065;52.898;6.992;2024-02-23T11:47:47;4.65;;;0.98;;
61200;SDS011;47065;52.898;6.992;2024-02-23T11:50:13;6.53;;;2.20;;
61200;SDS011;47065;52.898;6.992;2024-02-23T11:52:43;5.50;;;1.17;;
61200;SDS011;47065;52.898;6.992;2024-02-23T11:55:09;3.33;;;1.08;;
61200;SDS011;47065;52.898;6.992;2024-02-23T11:57:38;5.43;;;1.65;;
61200;SDS011;47065;52.898;6.992;2024-02-23T12:00:04;5.50;;;1.10;;
61200;SDS011;47065;52.898;6.992;2024-02-23T12:02:34;4.15;;;1.20;;
61200;SDS011;47065;52.898;6.992;2024-02-23T12:05:00;4.10;;;1.27;;
61200;SDS011;47065;52.898;6.992;2024-02-23T12:07:29;3.78;;;1.20;;
61200;SDS011;47065;52.898;6.992;2024-02-23T12:09:56;5.47;;;2.10;;
61200;SDS011;47065;52.898;6.992;2024-02-23T12:12:22;5.18;;;1.40;;
61200;SDS011;47065;52.898;6.992;2024-02-23T12:14:48;6.38;;;1.77;;
61200;SDS011;47065;52.898;6.992;2024-02-23T12:17:14;4.85;;;1.13;;
61200;SDS011;47065;52.898;6.992;2024-02-23T12:19:40;3.22;;;1.35;;
61200;SDS011;47065;52.898;6.992;2024-02-23T12:22:07;3.00;;;1.20;;
61200;SDS011;47065;52.898;6.992;2024-02-23T12:24:34;3.70;;;1.10;;
61200;SDS011;47065;52.898;6.992;2024-02-23T12:27:00;3.67;;;1.30;;
61200;SDS011;47065;52.898;6.992;2024-02-23T12:29:26;2.78;;;1.20;;
61200;SDS011;47065;52.898;6.992;2024-02-23T12:32:06;4.10;;;1.27;;
61200;SDS011;47065;52.898;6.992;2024-02-23T12:34:32;5.50;;;1.25;;
61200;SDS011;47065;52.898;6.992;2024-02-23T12:36:59;3.78;;;1.58;;
61200;SDS011;47065;52.898;6.992;2024-02-23T12:39:28;4.80;;;1.08;;
61200;SDS011;47065;52.898;6.992;2024-02-23T12:41:53;7.30;;;1.20;;
61200;SDS011;47065;52.898;6.992;2024-02-23T12:44:22;3.30;;;1.17;;
61200;SDS011;47065;52.898;6.992;2024-02-23T12:46:47;6.28;;;1.88;;
61200;SDS011;47065;52.898;6.992;2024-02-23T12:49:13;6.15;;;2.20;;
61200;SDS011;47065;52.898;6.992;2024-02-23T12:51:41;4.93;;;1.30;;
61200;SDS011;47065;52.898;6.992;2024-02-23T12:54:06;2.05;;;1.33;;
61200;SDS011;47065;52.898;6.992;2024-02-23T12:56:35;5.35;;;2.05;;
61200;SDS011;47065;52.898;6.992;2024-02-23T12:59:01;4.25;;;1.17;;
61200;SDS011;47065;52.898;6.992;2024-02-23T13:01:26;4.95;;;1.88;;
61200;SDS011;47065;52.898;6.992;2024-02-23T13:03:52;5.55;;;1.55;;
61200;SDS011;47065;52.898;6.992;2024-02-23T13:06:18;10.15;;;2.45;;
61200;SDS011;47065;52.898;6.992;2024-02-23T13:08:44;4.30;;;1.50;;
61200;SDS011;47065;52.898;6.992;2024-02-23T13:11:09;3.83;;;1.55;;
61200;SDS011;47065;52.898;6.992;2024-02-23T13:13:38;6.32;;;1.60;;
61200;SDS011;47065;52.898;6.992;2024-02-23T13:16:03;5.20;;;1.33;;
61200;SDS011;47065;52.898;6.992;2024-02-23T13:18:29;3.83;;;1.63;;
61200;SDS011;47065;52.898;6.992;2024-02-23T13:20:55;7.38;;;1.88;;
61200;SDS011;47065;52.898;6.992;2024-02-23T13:23:21;4.60;;;0.98;;
61200;SDS011;47065;52.898;6.992;2024-02-23T13:25:47;4.45;;;1.20;;
61200;SDS011;47065;52.898;6.992;2024-02-23T13:28:12;2.63;;;1.00;;
61200;SDS011;47065;52.898;6.992;2024-02-23T13:30:38;2.08;;;1.67;;
61200;SDS011;47065;52.898;6.992;2024-02-23T13:33:04;8.32;;;1.55;;
61200;SDS011;47065;52.898;6.992;2024-02-23T13:35:33;5.60;;;1.85;;
61200;SDS011;47065;52.898;6.992;2024-02-23T13:38:02;7.40;;;1.33;;
61200;SDS011;47065;52.898;6.992;2024-02-23T13:40:31;5.05;;;1.50;;
61200;SDS011;47065;52.898;6.992;2024-02-23T13:42:59;5.78;;;1.83;;
61200;SDS011;47065;52.898;6.992;2024-02-23T13:45:25;5.10;;;1.48;;
61200;SDS011;47065;52.898;6.992;2024-02-23T13:47:58;3.72;;;1.38;;
61200;SDS011;47065;52.898;6.992;2024-02-23T13:50:27;2.70;;;1.13;;
61200;SDS011;47065;52.898;6.992;2024-02-23T13:52:53;8.63;;;2.08;;
61200;SDS011;47065;52.898;6.992;2024-02-23T13:55:19;8.55;;;1.42;;
61200;SDS011;47065;52.898;6.992;2024-02-23T13:57:48;4.93;;;1.38;;
61200;SDS011;47065;52.898;6.992;2024-02-23T14:00:15;6.03;;;1.40;;
61200;SDS011;47065;52.898;6.992;2024-02-23T14:02:41;4.25;;;1.70;;
61200;SDS011;47065;52.898;6.992;2024-02-23T14:05:07;8.82;;;1.95;;
61200;SDS011;47065;52.898;6.992;2024-02-23T14:07:34;6.57;;;1.52;;
61200;SDS011;47065;52.898;6.992;2024-02-23T14:09:59;6.57;;;1.40;;
61200;SDS011;47065;52.898;6.992;2024-02-23T14:12:25;7.07;;;1.50;;
61200;SDS011;47065;52.898;6.992;2024-02-23T14:14:51;5.70;;;1.77;;
61200;SDS011;47065;52.898;6.992;2024-02-23T14:17:17;6.32;;;1.48;;
61200;SDS011;47065;52.898;6.992;2024-02-23T14:19:42;4.80;;;1.73;;
61200;SDS011;47065;52.898;6.992;2024-02-23T14:22:08;7.75;;;2.17;;
61200;SDS011;47065;52.898;6.992;2024-02-23T14:24:34;5.13;;;1.73;;
61200;SDS011;47065;52.898;6.992;2024-02-23T14:27:00;5.15;;;1.20;;
61200;SDS011;47065;52.898;6.992;2024-02-23T14:29:25;3.83;;;1.20;;
61200;SDS011;47065;52.898;6.992;2024-02-23T14:31:52;1.90;;;1.23;;
61200;SDS011;47065;52.898;6.992;2024-02-23T14:34:18;6.78;;;1.50;;
61200;SDS011;47065;52.898;6.992;2024-02-23T14:36:45;5.78;;;1.20;;
61200;SDS011;47065;52.898;6.992;2024-02-23T14:39:10;5.38;;;1.60;;
61200;SDS011;47065;52.898;6.992;2024-02-23T14:41:38;5.90;;;1.13;;
61200;SDS011;47065;52.898;6.992;2024-02-23T14:44:04;3.97;;;1.27;;
61200;SDS011;47065;52.898;6.992;2024-02-23T14:46:29;4.30;;;1.52;;